createdAt,value
2018-05-23T00:01:26.620Z,98700.99
2018-05-23T00:03:56.040Z,98701.53
2018-05-23T00:06:25.802Z,98701.12
2018-05-23T00:08:54.789Z,98702.60
2018-05-23T00:11:24.957Z,98696.61
2018-05-23T00:13:54.587Z,98698.45
2018-05-23T00:16:24.952Z,98691.69
2018-05-23T00:18:53.936Z,98688.76
2018-05-23T00:21:22.780Z,98691.98
2018-05-23T00:23:52.170Z,98685.45
2018-05-23T00:26:21.289Z,98686.28
2018-05-23T00:28:50.304Z,98688.83
2018-05-23T00:31:19.470Z,98685.70
2018-05-23T00:33:48.816Z,98681.70
2018-05-23T00:36:17.288Z,98684.22
2018-05-23T00:38:46.085Z,98680.33
2018-05-23T00:41:15.132Z,98681.13
2018-05-23T00:43:44.805Z,98679.48
2018-05-23T00:46:14.533Z,98683.70
2018-05-23T00:48:44.387Z,98681.23
2018-05-23T00:51:13.373Z,98677.63
2018-05-23T00:53:42.504Z,98678.13
2018-05-23T00:56:11.247Z,98665.28
2018-05-23T00:58:40.411Z,98665.52
2018-05-23T01:01:10.459Z,98661.94
2018-05-23T01:03:39.856Z,98666.25
2018-05-23T01:06:10.317Z,98665.52
2018-05-23T01:08:40.979Z,98669.95
2018-05-23T01:11:10.231Z,98668.80
2018-05-23T01:13:39.020Z,98667.22
2018-05-23T01:16:08.845Z,98666.93
2018-05-23T01:18:37.945Z,98673.05
2018-05-23T01:21:07.940Z,98675.11
2018-05-23T01:23:36.752Z,98676.14
2018-05-23T01:26:05.492Z,98677.39
2018-05-23T01:28:34.863Z,98684.95
2018-05-23T01:31:03.755Z,98684.57
2018-05-23T01:33:32.566Z,98683.06
2018-05-23T01:36:01.654Z,98680.42
2018-05-23T01:38:31.727Z,98678.88
2018-05-23T01:41:01.708Z,98680.03
2018-05-23T01:43:30.770Z,98676.98
2018-05-23T01:45:59.457Z,98677.13
2018-05-23T01:48:40.643Z,98687.28
2018-05-23T01:51:10.263Z,98688.34
2018-05-23T01:53:40.455Z,98687.98
2018-05-23T01:56:11.327Z,98683.31
2018-05-23T01:58:41.360Z,98686.28
2018-05-23T02:01:10.137Z,98686.92
2018-05-23T02:03:39.079Z,98687.44
2018-05-23T02:06:07.824Z,98686.02
2018-05-23T02:08:37.541Z,98687.70
2018-05-23T02:11:07.733Z,98684.48
2018-05-23T02:13:36.890Z,98682.90
2018-05-23T02:16:06.170Z,98683.13
2018-05-23T02:18:34.706Z,98682.80
2018-05-23T02:21:05.428Z,98682.13
2018-05-23T02:23:34.966Z,98676.91
2018-05-23T02:26:05.000Z,98674.55
2018-05-23T02:28:33.902Z,98678.35
2018-05-23T02:31:03.130Z,98678.35
2018-05-23T02:33:32.206Z,98672.78
2018-05-23T02:36:02.069Z,98679.80
2018-05-23T02:38:30.998Z,98669.39
2018-05-23T02:40:59.668Z,98674.61
2018-05-23T02:43:29.494Z,98666.59
2018-05-23T02:45:58.975Z,98665.38
2018-05-23T02:48:28.423Z,98670.30
2018-05-23T02:50:57.680Z,98668.02
2018-05-23T02:53:26.611Z,98670.66
2018-05-23T02:55:55.429Z,98661.48
2018-05-23T02:58:24.061Z,98663.38
2018-05-23T03:00:54.000Z,98661.19
2018-05-23T03:03:22.593Z,98666.72
2018-05-23T03:05:51.291Z,98655.06
2018-05-23T03:08:19.911Z,98650.36
2018-05-23T03:10:49.212Z,98654.13
2018-05-23T03:13:17.816Z,98650.04
2018-05-23T03:15:46.623Z,98648.56
2018-05-23T03:18:15.423Z,98646.84
2018-05-23T03:20:44.801Z,98645.98
2018-05-23T03:23:14.664Z,98653.22
2018-05-23T03:25:43.731Z,98650.93
2018-05-23T03:28:12.475Z,98653.09
2018-05-23T03:30:42.164Z,98655.98
2018-05-23T03:33:10.905Z,98653.95
2018-05-23T03:35:40.475Z,98653.71
2018-05-23T03:38:09.217Z,98658.13
2018-05-23T03:40:37.899Z,98656.29
2018-05-23T03:43:06.431Z,98660.31
2018-05-23T03:45:35.180Z,98662.69
2018-05-23T03:48:05.751Z,98664.27
2018-05-23T03:50:35.457Z,98661.08
2018-05-23T03:53:04.641Z,98664.27
2018-05-23T03:55:33.224Z,98665.66
2018-05-23T03:58:02.465Z,98667.30
2018-05-23T04:00:49.109Z,98667.39
2018-05-23T04:03:35.650Z,98668.07
2018-05-23T04:06:23.171Z,98676.19
2018-05-23T04:08:52.656Z,98672.55
2018-05-23T04:11:22.138Z,98676.01
2018-05-23T04:13:50.805Z,98675.54
2018-05-23T04:16:19.535Z,98680.27
2018-05-23T04:18:48.137Z,98678.12
2018-05-23T04:21:16.902Z,98686.09
2018-05-23T04:23:47.839Z,98692.00
2018-05-23T04:26:16.536Z,98696.32
2018-05-23T04:28:45.250Z,98699.38
2018-05-23T04:31:14.373Z,98695.30
2018-05-23T04:33:43.369Z,98702.94
2018-05-23T04:36:12.840Z,98697.34
2018-05-23T04:38:42.970Z,98710.12
2018-05-23T04:41:13.008Z,98712.86
2018-05-23T04:43:41.755Z,98712.86
2018-05-23T04:46:10.683Z,98719.93
2018-05-23T04:48:39.506Z,98720.19
2018-05-23T04:51:08.406Z,98717.80
2018-05-23T04:53:38.162Z,98711.20
2018-05-23T04:56:06.949Z,98715.73
2018-05-23T04:58:35.841Z,98708.10
2018-05-23T05:01:05.296Z,98714.39
2018-05-23T05:03:34.136Z,98712.86
2018-05-23T05:06:03.496Z,98714.17
2018-05-23T05:08:32.760Z,98720.45
2018-05-23T05:11:02.717Z,98715.84
2018-05-23T05:13:31.680Z,98721.52
2018-05-23T05:16:00.448Z,98726.70
2018-05-23T05:18:29.784Z,98723.30
2018-05-23T05:20:59.286Z,98719.18
2018-05-23T05:23:27.955Z,98720.50
2018-05-23T05:25:56.758Z,98720.63
2018-05-23T05:28:25.489Z,98725.50
2018-05-23T05:30:54.162Z,98724.99
2018-05-23T05:33:22.946Z,98732.95
2018-05-23T05:35:53.339Z,98732.79
2018-05-23T05:38:22.452Z,98733.09
2018-05-23T05:40:51.308Z,98738.41
2018-05-23T05:43:19.956Z,98731.64
2018-05-23T05:45:48.593Z,98735.13
2018-05-23T05:48:17.391Z,98735.03
2018-05-23T05:50:46.076Z,98743.86
2018-05-23T05:53:14.665Z,98745.16
2018-05-23T05:55:44.324Z,98752.30
2018-05-23T05:58:13.761Z,98755.72
2018-05-23T06:00:42.546Z,98750.34
2018-05-23T06:03:11.367Z,98758.36
2018-05-23T06:05:40.075Z,98766.56
2018-05-23T06:08:09.709Z,98765.42
2018-05-23T06:10:38.959Z,98769.89
2018-05-23T06:13:07.899Z,98766.11
2018-05-23T06:15:37.468Z,98767.52
2018-05-23T06:18:06.383Z,98765.85
2018-05-23T06:20:35.097Z,98763.68
2018-05-23T06:23:03.987Z,98774.77
2018-05-23T06:25:32.950Z,98770.66
2018-05-23T06:28:01.786Z,98767.75
2018-05-23T06:30:31.537Z,98774.77
2018-05-23T06:33:00.453Z,98772.33
2018-05-23T06:35:29.252Z,98777.65
2018-05-23T06:37:59.098Z,98784.66
2018-05-23T06:40:28.405Z,98789.14
2018-05-23T06:42:58.803Z,98787.45
2018-05-23T06:45:32.770Z,98789.27
2018-05-23T06:48:02.420Z,98793.03
2018-05-23T06:50:31.236Z,98789.44
2018-05-23T06:53:00.512Z,98800.06
2018-05-23T06:55:29.263Z,98795.43
2018-05-23T06:57:58.333Z,98798.83
2018-05-23T07:00:28.387Z,98797.84
2018-05-23T07:02:58.139Z,98800.52
2018-05-23T07:05:27.573Z,98795.20
2018-05-23T07:07:56.655Z,98792.41
2018-05-23T07:10:26.334Z,98789.20
2018-05-23T07:12:55.008Z,98781.91
2018-05-23T07:15:23.623Z,98790.32
2018-05-23T07:17:52.347Z,98794.87
2018-05-23T07:20:21.152Z,98794.14
2018-05-23T07:22:50.450Z,98789.08
2018-05-23T07:25:19.293Z,98789.84
2018-05-23T07:27:48.527Z,98789.26
2018-05-23T07:30:17.373Z,98795.23
2018-05-23T07:32:46.234Z,98792.52
2018-05-23T07:35:15.319Z,98799.88
2018-05-23T07:37:44.612Z,98794.70
2018-05-23T07:40:13.611Z,98795.66
2018-05-23T07:42:43.407Z,98801.50
2018-05-23T07:45:12.095Z,98801.09
2018-05-23T07:47:41.759Z,98797.46
2018-05-23T07:50:10.547Z,98796.70
2018-05-23T07:52:39.318Z,98801.09
2018-05-23T07:55:08.078Z,98796.87
2018-05-23T07:57:36.820Z,98797.16
2018-05-23T08:00:07.322Z,98797.50
2018-05-23T08:02:36.360Z,98802.92
2018-05-23T08:05:05.335Z,98792.56
2018-05-23T08:07:35.469Z,98787.48
2018-05-23T08:10:05.740Z,98789.55
2018-05-23T08:12:34.848Z,98785.78
2018-05-23T08:15:04.193Z,98786.78
2018-05-23T08:17:33.093Z,98778.95
2018-05-23T08:20:01.920Z,98778.00
2018-05-23T08:22:30.838Z,98779.98
2018-05-23T08:24:59.538Z,98777.22
2018-05-23T08:27:29.066Z,98786.29
2018-05-23T08:29:57.903Z,98782.17
2018-05-23T08:32:26.683Z,98787.86
2018-05-23T08:34:55.991Z,98788.03
2018-05-23T08:37:25.352Z,98782.09
2018-05-23T08:39:54.701Z,98790.20
2018-05-23T08:42:23.327Z,98793.51
2018-05-23T08:44:52.055Z,98788.28
2018-05-23T08:47:20.997Z,98792.89
2018-05-23T08:49:50.278Z,98794.34
2018-05-23T08:52:19.539Z,98792.19
2018-05-23T08:54:48.265Z,98790.66
2018-05-23T08:57:17.749Z,98795.13
2018-05-23T08:59:46.502Z,98790.26
2018-05-23T09:02:15.508Z,98793.35
2018-05-23T09:04:45.515Z,98797.21
2018-05-23T09:07:14.950Z,98795.14
2018-05-23T09:09:44.857Z,98796.63
2018-05-23T09:12:13.888Z,98798.41
2018-05-23T09:14:42.591Z,98797.61
2018-05-23T09:17:11.285Z,98799.27
2018-05-23T09:19:42.361Z,98796.63
2018-05-23T09:22:12.110Z,98794.05
2018-05-23T09:24:40.921Z,98799.38
2018-05-23T09:27:10.323Z,98800.07
2018-05-23T09:29:39.533Z,98792.27
2018-05-23T09:32:08.340Z,98802.25
2018-05-23T09:34:37.037Z,98800.31
2018-05-23T09:37:06.495Z,98799.45
2018-05-23T09:39:35.972Z,98797.00
2018-05-23T09:42:05.646Z,98802.69
2018-05-23T09:44:34.441Z,98801.03
2018-05-23T09:47:03.155Z,98795.99
2018-05-23T09:49:32.736Z,98792.40
2018-05-23T09:52:02.304Z,98789.58
2018-05-23T09:54:31.329Z,98785.57
2018-05-23T09:57:00.201Z,98791.03
2018-05-23T09:59:30.171Z,98784.75
2018-05-23T10:01:59.389Z,98784.13
2018-05-23T10:04:28.217Z,98774.28
2018-05-23T10:06:58.938Z,98779.11
2018-05-23T10:09:28.378Z,98781.36
2018-05-23T10:11:57.178Z,98779.94
2018-05-23T10:14:26.229Z,98773.34
2018-05-23T10:16:55.023Z,98773.97
2018-05-23T10:19:24.245Z,98771.70
2018-05-23T10:21:52.966Z,98768.59
2018-05-23T10:24:22.058Z,98775.61
2018-05-23T10:26:51.343Z,98774.48
2018-05-23T10:29:21.222Z,98768.79
2018-05-23T10:31:50.234Z,98770.66
2018-05-23T10:34:19.256Z,98782.66
2018-05-23T10:36:48.376Z,98779.18
2018-05-23T10:39:18.856Z,98779.27
2018-05-23T10:41:49.244Z,98783.15
2018-05-23T10:44:18.265Z,98778.38
2018-05-23T10:46:47.104Z,98779.08
2018-05-23T10:49:16.155Z,98788.05
2018-05-23T10:51:45.714Z,98782.42
2018-05-23T10:54:15.677Z,98779.46
2018-05-23T10:56:44.460Z,98780.15
2018-05-23T10:59:13.261Z,98788.67
2018-05-23T11:01:42.000Z,98794.10
2018-05-23T11:04:11.141Z,98786.83
2018-05-23T11:06:40.710Z,98792.63
2018-05-23T11:09:10.809Z,98788.32
2018-05-23T11:11:40.575Z,98781.10
2018-05-23T11:14:10.130Z,98777.98
2018-05-23T11:16:38.794Z,98772.02
2018-05-23T11:19:09.036Z,98779.81
2018-05-23T11:21:38.606Z,98787.88
2018-05-23T11:24:07.624Z,98783.65
2018-05-23T11:26:36.738Z,98782.78
2018-05-23T11:29:07.042Z,98776.39
2018-05-23T11:31:38.212Z,98768.43
2018-05-23T11:34:09.032Z,98777.61
2018-05-23T11:36:39.686Z,98767.82
2018-05-23T11:39:08.875Z,98766.77
2018-05-23T11:41:37.567Z,98777.91
2018-05-23T11:44:06.561Z,98764.27
2018-05-23T11:46:36.026Z,98765.20
2018-05-23T11:49:04.854Z,98770.51
2018-05-23T11:51:33.670Z,98766.06
2018-05-23T11:54:03.398Z,98765.19
2018-05-23T11:56:36.082Z,98765.53
2018-05-23T11:59:05.551Z,98764.34
2018-05-23T12:01:36.245Z,98766.96
2018-05-23T12:04:05.178Z,98757.27
2018-05-23T12:06:34.569Z,98762.05
2018-05-23T12:09:04.634Z,98757.84
2018-05-23T12:11:34.501Z,98755.97
2018-05-23T12:14:04.951Z,98757.45
2018-05-23T12:16:33.705Z,98751.05
2018-05-23T12:19:02.720Z,98755.05
2018-05-23T12:21:31.756Z,98755.98
2018-05-23T12:24:01.194Z,98750.66
2018-05-23T12:26:31.473Z,98748.77
2018-05-23T12:29:00.409Z,98752.63
2018-05-23T12:31:29.222Z,98752.65
2018-05-23T12:33:59.060Z,98753.02
2018-05-23T12:36:27.960Z,98746.06
2018-05-23T12:38:57.201Z,98737.61
2018-05-23T12:41:25.931Z,98739.64
2018-05-23T12:43:55.003Z,98740.95
2018-05-23T12:46:26.249Z,98741.01
2018-05-23T12:48:56.588Z,98741.25
2018-05-23T12:51:27.235Z,98733.95
2018-05-23T12:53:58.334Z,98728.84
2018-05-23T12:56:27.333Z,98727.06
2018-05-23T12:58:56.166Z,98721.90
2018-05-23T13:01:25.563Z,98716.71
2018-05-23T13:03:54.379Z,98715.15
2018-05-23T13:06:23.387Z,98715.84
2018-05-23T13:08:52.855Z,98709.09
2018-05-23T13:11:22.062Z,98711.23
2018-05-23T13:13:50.963Z,98708.23
2018-05-23T13:16:20.052Z,98703.92
2018-05-23T13:18:48.841Z,98700.61
2018-05-23T13:21:18.983Z,98700.65
2018-05-23T13:23:51.006Z,98690.02
2018-05-23T13:26:19.756Z,98689.23
2018-05-23T13:28:48.927Z,98692.82
2018-05-23T13:31:17.849Z,98689.61
2018-05-23T13:33:47.286Z,98690.29
2018-05-23T13:36:16.124Z,98691.39
2018-05-23T13:38:45.049Z,98689.61
2018-05-23T13:41:14.510Z,98683.34
2018-05-23T13:43:44.365Z,98689.50
2018-05-23T13:46:13.962Z,98685.84
2018-05-23T13:48:43.325Z,98687.99
2018-05-23T13:51:13.158Z,98690.52
2018-05-23T13:53:44.012Z,98694.70
2018-05-23T13:56:13.014Z,98691.87
2018-05-23T13:58:43.726Z,98685.14
2018-05-23T14:01:13.292Z,98688.89
2018-05-23T14:03:42.101Z,98684.39
2018-05-23T14:06:11.040Z,98675.84
2018-05-23T14:08:41.299Z,98681.13
2018-05-23T14:11:11.000Z,98681.02
2018-05-23T14:13:40.237Z,98674.48
2018-05-23T14:16:10.381Z,98677.13
2018-05-23T14:18:40.142Z,98676.89
2018-05-23T14:21:10.552Z,98672.83
2018-05-23T14:23:39.510Z,98687.00
2018-05-23T14:26:11.189Z,98685.40
2018-05-23T14:28:40.253Z,98690.03
2018-05-23T14:31:12.457Z,98687.36
2018-05-23T14:33:42.617Z,98698.53
2018-05-23T14:36:11.815Z,98694.11
2018-05-23T14:38:41.067Z,98700.38
2018-05-23T14:41:11.703Z,98699.28
2018-05-23T14:43:42.667Z,98705.04
2018-05-23T14:46:11.659Z,98711.41
2018-05-23T14:48:41.235Z,98716.95
2018-05-23T14:51:11.540Z,98718.58
2018-05-23T14:53:41.589Z,98712.73
2018-05-23T14:56:13.542Z,98708.88
2018-05-23T14:58:43.315Z,98704.33
2018-05-23T15:01:14.548Z,98702.84
2018-05-23T15:03:45.301Z,98707.15
2018-05-23T15:06:15.487Z,98702.72
2018-05-23T15:08:45.092Z,98708.27
2018-05-23T15:11:15.281Z,98702.48
2018-05-23T15:13:45.050Z,98694.61
2018-05-23T15:16:15.306Z,98690.81
2018-05-23T15:18:44.983Z,98684.17
2018-05-23T15:21:14.132Z,98696.61
2018-05-23T15:23:43.918Z,98695.90
2018-05-23T15:26:12.842Z,98696.42
2018-05-23T15:28:42.057Z,98696.28
2018-05-23T15:31:11.554Z,98695.42
2018-05-23T15:33:41.247Z,98694.38
2018-05-23T15:36:10.293Z,98698.02
2018-05-23T15:38:40.374Z,98698.28
2018-05-23T15:41:09.216Z,98706.63
2018-05-23T15:43:37.871Z,98704.91
2018-05-23T15:46:06.889Z,98706.28
2018-05-23T15:48:35.715Z,98710.83
2018-05-23T15:51:04.573Z,98704.33
2018-05-23T15:53:34.739Z,98701.53
2018-05-23T15:56:03.678Z,98704.54
2018-05-23T15:58:32.734Z,98692.52
2018-05-23T16:01:02.309Z,98691.77
2018-05-23T16:03:32.182Z,98687.09
2018-05-23T16:06:02.113Z,98690.59
2018-05-23T16:08:31.036Z,98689.73
2018-05-23T16:11:00.121Z,98696.27
2018-05-23T16:13:29.788Z,98690.01
2018-05-23T16:16:01.108Z,98692.27
2018-05-23T16:18:30.386Z,98692.77
2018-05-23T16:20:59.687Z,98700.47
2018-05-23T16:23:30.844Z,98701.72
2018-05-23T16:26:00.024Z,98706.30
2018-05-23T16:28:29.772Z,98700.81
2018-05-23T16:30:59.160Z,98702.67
2018-05-23T16:33:27.987Z,98699.60
2018-05-23T16:35:56.726Z,98699.27
2018-05-23T16:38:25.911Z,98695.91
2018-05-23T16:40:56.276Z,98692.13
2018-05-23T16:43:25.175Z,98699.82
2018-05-23T16:45:54.305Z,98698.27
2018-05-23T16:48:23.933Z,98700.02
2018-05-23T16:50:53.104Z,98713.17
2018-05-23T16:53:22.516Z,98720.00
2018-05-23T16:55:52.993Z,98723.59
2018-05-23T16:58:23.268Z,98730.08
2018-05-23T17:00:54.431Z,98733.91
2018-05-23T17:03:24.240Z,98734.48
2018-05-23T17:05:53.696Z,98734.16
2018-05-23T17:08:23.211Z,98746.34
2018-05-23T17:10:52.218Z,98742.39
2018-05-23T17:13:21.341Z,98740.30
2018-05-23T17:15:50.876Z,98749.70
2018-05-23T17:18:19.694Z,98750.31
2018-05-23T17:20:50.768Z,98746.97
2018-05-23T17:23:20.146Z,98746.27
2018-05-23T17:25:49.993Z,98753.58
2018-05-23T17:28:18.997Z,98752.98
2018-05-23T17:30:48.833Z,98756.53
2018-05-23T17:33:17.627Z,98755.55
2018-05-23T17:35:46.465Z,98757.72
2018-05-23T17:38:15.457Z,98761.78
2018-05-23T17:40:44.181Z,98765.92
2018-05-23T17:43:12.994Z,98775.47
2018-05-23T17:45:41.809Z,98773.69
2018-05-23T17:48:12.593Z,98769.30
2018-05-23T17:50:42.986Z,98776.18
2018-05-23T17:53:12.942Z,98785.53
2018-05-23T17:55:41.991Z,98790.28
2018-05-23T17:58:12.138Z,98790.34
2018-05-23T18:00:40.899Z,98791.09
2018-05-23T18:03:09.715Z,98791.67
2018-05-23T18:05:39.460Z,98792.02
2018-05-23T18:08:08.878Z,98799.63
2018-05-23T18:10:41.657Z,98803.49
2018-05-23T18:13:10.546Z,98806.90
2018-05-23T18:15:40.557Z,98806.85
2018-05-23T18:18:10.270Z,98803.17
2018-05-23T18:20:39.479Z,98816.57
2018-05-23T18:23:09.306Z,98818.59
2018-05-23T18:25:38.065Z,98829.67
2018-05-23T18:28:07.648Z,98828.20
2018-05-23T18:30:36.454Z,98835.36
2018-05-23T18:33:06.262Z,98828.33
2018-05-23T18:35:34.957Z,98839.11
2018-05-23T18:38:04.489Z,98836.72
2018-05-23T18:40:35.036Z,98841.14
2018-05-23T18:43:05.504Z,98843.47
2018-05-23T18:45:35.228Z,98839.39
2018-05-23T18:48:04.554Z,98844.81
2018-05-23T18:50:35.375Z,98845.14
2018-05-23T18:53:04.409Z,98843.75
2018-05-23T18:55:33.972Z,98835.62
2018-05-23T18:58:03.026Z,98839.01
2018-05-23T19:00:32.289Z,98841.42
2018-05-23T19:03:01.215Z,98840.94
2018-05-23T19:05:30.295Z,98847.84
2018-05-23T19:08:00.050Z,98845.25
2018-05-23T19:10:29.727Z,98848.06
2018-05-23T19:12:59.369Z,98845.79
2018-05-23T19:15:28.552Z,98848.71
2018-05-23T19:17:58.154Z,98856.54
2018-05-23T19:20:27.253Z,98855.78
2018-05-23T19:22:55.960Z,98864.73
2018-05-23T19:25:24.807Z,98863.31
2018-05-23T19:27:53.719Z,98868.97
2018-05-23T19:30:23.474Z,98869.10
2018-05-23T19:32:52.462Z,98864.81
2018-05-23T19:35:22.193Z,98865.25
2018-05-23T19:37:51.587Z,98863.47
2018-05-23T19:40:21.837Z,98879.98
2018-05-23T19:42:51.618Z,98891.02
2018-05-23T19:45:21.309Z,98890.58
2018-05-23T19:47:51.405Z,98887.72
2018-05-23T19:50:20.898Z,98884.37
2018-05-23T19:52:50.757Z,98894.44
2018-05-23T19:55:21.125Z,98893.41
2018-05-23T19:57:52.792Z,98897.28
2018-05-23T20:00:24.002Z,98892.05
2018-05-23T20:02:55.121Z,98889.45
2018-05-23T20:05:26.083Z,98893.57
2018-05-23T20:07:56.342Z,98891.02
2018-05-23T20:10:26.963Z,98895.92
2018-05-23T20:12:57.128Z,98894.99
2018-05-23T20:15:26.549Z,98901.77
2018-05-23T20:17:57.158Z,98900.28
2018-05-23T20:20:28.162Z,98900.59
2018-05-23T20:22:59.277Z,98901.16
2018-05-23T20:25:29.468Z,98903.95
2018-05-23T20:27:59.215Z,98907.45
2018-05-23T20:30:30.099Z,98911.13
2018-05-23T20:32:59.600Z,98916.55
2018-05-23T20:35:28.651Z,98913.09
2018-05-23T20:37:59.556Z,98917.39
2018-05-23T20:40:30.561Z,98923.09
2018-05-23T20:43:02.217Z,98922.22
2018-05-23T20:45:31.528Z,98916.11
2018-05-23T20:48:02.326Z,98915.61
2018-05-23T20:50:35.108Z,98912.30
2018-05-23T20:53:04.473Z,98916.23
2018-05-23T20:55:33.421Z,98915.02
2018-05-23T20:58:02.259Z,98919.33
2018-05-23T21:00:31.676Z,98921.86
2018-05-23T21:03:02.076Z,98933.22
2018-05-23T21:05:31.399Z,98935.23
2018-05-23T21:08:01.522Z,98934.29
2018-05-23T21:10:31.539Z,98939.30
2018-05-23T21:13:02.575Z,98936.25
2018-05-23T21:15:32.355Z,98934.92
2018-05-23T21:18:01.609Z,98932.36
2018-05-23T21:20:30.379Z,98927.19
2018-05-23T21:23:00.038Z,98929.09
2018-05-23T21:25:29.767Z,98927.83
2018-05-23T21:27:58.576Z,98921.85
2018-05-23T21:30:28.047Z,98923.39
2018-05-23T21:32:56.815Z,98924.66
2018-05-23T21:35:26.077Z,98922.95
2018-05-23T21:37:54.764Z,98925.81
2018-05-23T21:40:24.369Z,98930.67
2018-05-23T21:42:53.747Z,98925.13
2018-05-23T21:45:23.203Z,98929.36
2018-05-23T21:47:51.915Z,98928.20
2018-05-23T21:50:20.727Z,98928.52
2018-05-23T21:52:49.391Z,98930.68
2018-05-23T21:55:19.606Z,98938.88
2018-05-23T21:57:48.352Z,98940.95
2018-05-23T22:00:17.924Z,98931.96
2018-05-23T22:02:46.737Z,98936.82
2018-05-23T22:05:15.431Z,98941.73
2018-05-23T22:07:43.967Z,98945.09
2018-05-23T22:10:12.979Z,98950.16
2018-05-23T22:12:42.379Z,98944.30
2018-05-23T22:15:11.670Z,98949.63
2018-05-23T22:17:41.119Z,98950.97
2018-05-23T22:20:09.833Z,98953.88
2018-05-23T22:22:38.355Z,98955.60
2018-05-23T22:25:06.942Z,98945.56
2018-05-23T22:27:35.752Z,98946.45
2018-05-23T22:30:04.539Z,98947.30
2018-05-23T22:32:34.193Z,98952.58
2018-05-23T22:35:02.846Z,98955.02
2018-05-23T22:37:32.595Z,98954.65
2018-05-23T22:40:01.336Z,98957.81
2018-05-23T22:42:30.451Z,98948.19
2018-05-23T22:44:59.704Z,98951.23
2018-05-23T22:47:29.034Z,98947.78
2018-05-23T22:49:57.812Z,98953.98
2018-05-23T22:52:26.379Z,98959.09
2018-05-23T22:54:55.948Z,98954.18
2018-05-23T22:57:24.623Z,98958.61
2018-05-23T22:59:54.286Z,98956.33
2018-05-23T23:02:23.195Z,98956.12
2018-05-23T23:04:52.006Z,98958.90
2018-05-23T23:07:20.836Z,98951.88
2018-05-23T23:09:49.637Z,98954.11
2018-05-23T23:12:18.541Z,98952.52
2018-05-23T23:14:47.645Z,98958.95
2018-05-23T23:17:17.383Z,98959.25
2018-05-23T23:19:46.760Z,98958.19
2018-05-23T23:22:33.691Z,98956.59
2018-05-23T23:25:02.635Z,98960.60
2018-05-23T23:27:31.548Z,98951.47
2018-05-23T23:30:00.349Z,98955.95
2018-05-23T23:32:29.922Z,98953.05
2018-05-23T23:34:59.243Z,98945.94
2018-05-23T23:37:28.837Z,98944.89
2018-05-23T23:39:57.638Z,98942.66
2018-05-23T23:42:26.241Z,98948.55
2018-05-23T23:44:54.989Z,98947.10
2018-05-23T23:47:23.690Z,98934.35
2018-05-23T23:49:52.393Z,98936.42
2018-05-23T23:52:21.182Z,98938.09
2018-05-23T23:54:49.727Z,98940.57
2018-05-23T23:57:18.377Z,98947.22
2018-05-23T23:59:46.871Z,98944.87
